Terminal Aerodrome Forecast
Issued by NWS

Home | Current Version | Previous Version | Text Only | Print | Product List | Glossary On
Versions: 1 2 3 4 5 6 7 8 9 10 11 12 13 14 15 16 17 18 19 20 21 22 23 24 25 26
000
FTUS46 KLOX 301100
TAFLAX
TAF
KLAX 301130Z 3012/3118 VRB03KT P6SM BKN008
     FM301700 26007KT 6SM HZ SCT010
     FM302100 27012KT P6SM SKC
     FM310300 25007KT P6SM SCT008
     FM310700 VRB03KT 5SM BR OVC007
     FM311000 11005KT P6SM OVC011
     FM311700 22005KT P6SM SCT015=

USA.gov is the U.S. government's official web portal to all federal, state and local government web resources and services.